Time;durP1;ratioP1;P1;durP2;ratioP2;P2;SDS_P1;SDS_P2;PMS_P1;PMS_P2;Temp;Humidity;BMP_temperature;BMP_pressure;BME280_temperature;BME280_humidity;BME280_pressure;Samples;Min_cycle;Max_cycle;Signal;HPM_P1;HPM_P2
2023/01/21 00:01:39;;;;;;;2.93;0.77;;;2.40;99.90;;;;;;4161613;28;20642;-62
2023/01/21 00:03:40;;;;;;;3.20;1.10;;;2.30;99.90;;;;;;4161503;28;20296;-61
2023/01/21 00:05:42;;;;;;;2.70;1.20;;;2.20;99.90;;;;;;4142811;28;20402;-61
2023/01/21 00:07:43;;;;;;;1.10;1.00;;;2.20;99.90;;;;;;4161175;28;20758;-61
2023/01/21 00:09:44;;;;;;;3.17;1.53;;;2.10;99.90;;;;;;4160785;28;20312;-61
2023/01/21 00:11:45;;;;;;;2.00;1.40;;;2.10;99.90;;;;;;4161064;28;20267;-61
2023/01/21 00:13:46;;;;;;;2.00;1.57;;;2.20;99.90;;;;;;4159904;28;20332;-61
2023/01/21 00:15:48;;;;;;;1.77;1.40;;;2.20;99.90;;;;;;4161316;28;20746;-63
2023/01/21 00:17:52;;;;;;;4.37;1.80;;;2.20;99.90;;;;;;4159809;28;20686;-64
2023/01/21 00:19:53;;;;;;;3.87;1.83;;;2.10;99.90;;;;;;4160810;28;20302;-62
2023/01/21 00:21:54;;;;;;;3.50;1.47;;;2.10;99.90;;;;;;4158880;28;20324;-62
2023/01/21 00:23:55;;;;;;;3.27;1.73;;;2.10;99.90;;;;;;4160764;28;20286;-62
2023/01/21 00:26:01;;;;;;;3.40;1.60;;;2.00;99.90;;;;;;4160259;28;20682;-62
2023/01/21 00:28:02;;;;;;;3.20;1.73;;;2.00;99.90;;;;;;4161487;28;20378;-61
2023/01/21 00:30:04;;;;;;;6.47;2.00;;;1.90;99.90;;;;;;4159755;28;20282;-61
2023/01/21 00:32:05;;;;;;;4.50;1.90;;;1.80;99.90;;;;;;4161477;28;20321;-61
2023/01/21 00:34:06;;;;;;;7.67;1.80;;;1.80;99.90;;;;;;4160674;28;20263;-62
2023/01/21 00:36:12;;;;;;;7.00;2.53;;;1.70;99.90;;;;;;4160184;28;20282;-61
2023/01/21 00:38:13;;;;;;;5.97;2.70;;;1.70;99.90;;;;;;4159897;28;20432;-61
2023/01/21 00:40:14;;;;;;;6.57;2.47;;;1.70;99.90;;;;;;4160565;28;20766;-61
2023/01/21 00:42:15;;;;;;;4.63;2.60;;;1.60;99.90;;;;;;4160885;28;20825;-61
2023/01/21 00:44:18;;;;;;;9.57;2.87;;;1.60;99.90;;;;;;4160337;28;20421;-62
2023/01/21 00:46:19;;;;;;;3.90;2.20;;;1.60;99.90;;;;;;4160727;28;20839;-62
2023/01/21 00:48:20;;;;;;;5.53;2.00;;;1.60;99.90;;;;;;4160481;28;20266;-62
2023/01/21 00:50:21;;;;;;;4.77;2.23;;;1.60;99.90;;;;;;4161106;28;20275;-62
2023/01/21 00:52:22;;;;;;;9.63;2.80;;;1.60;99.90;;;;;;4160257;28;20259;-62
2023/01/21 00:54:24;;;;;;;8.90;3.00;;;1.60;99.90;;;;;;4176502;28;20612;-61
2023/01/21 00:56:25;;;;;;;3.17;2.40;;;1.60;99.90;;;;;;4160217;28;20258;-62
2023/01/21 00:58:27;;;;;;;4.43;2.53;;;1.70;99.90;;;;;;4161070;28;20372;-62
2023/01/21 01:00:28;;;;;;;4.90;2.20;;;1.60;99.90;;;;;;4160043;28;20662;-67
2023/01/21 01:02:29;;;;;;;5.37;1.90;;;1.60;99.90;;;;;;4161362;28;20263;-63
2023/01/21 01:04:30;;;;;;;3.43;1.80;;;1.50;99.90;;;;;;4160812;28;20262;-61
2023/01/21 01:06:32;;;;;;;2.83;2.10;;;1.40;99.90;;;;;;4160714;28;20271;-63
2023/01/21 01:08:33;;;;;;;2.87;2.00;;;1.40;99.90;;;;;;4160266;28;20791;-62
2023/01/21 01:10:36;;;;;;;2.97;1.47;;;1.40;99.90;;;;;;4160277;28;21148;-62
2023/01/21 01:12:37;;;;;;;2.30;1.50;;;1.30;99.90;;;;;;4160894;28;20301;-61
2023/01/21 01:14:38;;;;;;;2.07;1.40;;;1.30;99.90;;;;;;4159155;28;20287;-61
2023/01/21 01:16:39;;;;;;;2.33;1.57;;;1.30;99.90;;;;;;4160309;28;20333;-61
2023/01/21 01:18:41;;;;;;;6.50;2.27;;;1.20;99.90;;;;;;4159903;28;20775;-61
2023/01/21 01:20:42;;;;;;;6.17;2.67;;;1.20;99.90;;;;;;4160797;28;20674;-61
2023/01/21 01:22:44;;;;;;;6.80;2.30;;;1.10;99.90;;;;;;4160147;28;20401;-62
2023/01/21 01:24:45;;;;;;;8.60;2.77;;;1.10;99.90;;;;;;4161273;28;20275;-61
2023/01/21 01:26:46;;;;;;;4.80;1.73;;;1.10;99.90;;;;;;4160143;28;20320;-61
2023/01/21 01:28:47;;;;;;;3.93;2.47;;;1.10;99.90;;;;;;4160069;28;20339;-62
2023/01/21 01:30:48;;;;;;;7.07;2.90;;;1.10;99.90;;;;;;4159506;28;20283;-62
2023/01/21 01:32:50;;;;;;;5.73;3.30;;;1.20;99.90;;;;;;4161553;28;20646;-61
2023/01/21 01:34:51;;;;;;;8.70;3.40;;;1.20;99.90;;;;;;4145551;28;20739;-63
2023/01/21 01:36:52;;;;;;;6.83;3.90;;;1.20;99.90;;;;;;4163969;28;20805;-62
2023/01/21 01:38:53;;;;;;;9.63;3.70;;;1.10;99.90;;;;;;4163239;28;20298;-61
2023/01/21 01:40:54;;;;;;;5.23;3.23;;;1.20;99.90;;;;;;4163501;28;20274;-60
2023/01/21 01:42:55;;;;;;;7.17;3.40;;;1.20;99.90;;;;;;4163220;28;20370;-61
2023/01/21 01:45:03;;;;;;;4.80;3.17;;;1.10;99.90;;;;;;4163091;28;20337;-62
2023/01/21 01:47:04;;;;;;;5.10;3.80;;;1.20;99.90;;;;;;4163702;28;20275;-61
2023/01/21 01:49:14;;;;;;;7.70;4.20;;;1.20;99.90;;;;;;4162880;28;20611;-61
2023/01/21 01:51:20;;;;;;;9.00;3.63;;;1.20;99.90;;;;;;4164043;28;20378;-59
2023/01/21 01:53:21;;;;;;;8.93;3.57;;;1.30;99.90;;;;;;4162741;28;20746;-64
2023/01/21 01:55:23;;;;;;;4.43;2.40;;;1.30;99.90;;;;;;4163760;28;20313;-62
2023/01/21 01:57:33;;;;;;;5.03;2.40;;;1.20;99.90;;;;;;4162742;28;20329;-61
2023/01/21 01:59:35;;;;;;;6.78;2.35;;;1.20;99.90;;;;;;4163727;28;20376;-61
2023/01/21 02:01:37;;;;;;;3.83;2.80;;;1.20;99.90;;;;;;4162245;28;20030;-61
2023/01/21 02:03:44;;;;;;;5.50;2.47;;;1.20;99.90;;;;;;4163815;28;20685;-61
2023/01/21 02:05:46;;;;;;;5.10;2.97;;;1.20;99.90;;;;;;4162957;28;20313;-63
2023/01/21 02:07:47;;;;;;;4.80;2.73;;;1.20;99.90;;;;;;4162857;28;20746;-62
2023/01/21 02:09:51;;;;;;;6.53;2.80;;;1.20;99.90;;;;;;4161854;28;20353;-62
2023/01/21 02:11:52;;;;;;;4.77;2.87;;;1.20;99.90;;;;;;4163671;28;20259;-63
2023/01/21 02:13:56;;;;;;;4.17;2.80;;;1.20;99.90;;;;;;4162387;28;20312;-61
2023/01/21 02:16:24;;;;;;;6.20;2.73;;;1.20;99.90;;;;;;4163532;28;20890;-61
2023/01/21 02:18:53;;;;;;;5.30;3.47;;;1.20;99.90;;;;;;4160367;28;20274;-60
2023/01/21 02:21:15;;;;;;;7.93;3.50;;;1.20;99.90;;;;;;4161634;28;20274;-60
2023/01/21 02:23:19;;;;;;;8.07;3.73;;;1.10;99.90;;;;;;4162380;28;20271;-60
2023/01/21 02:25:34;;;;;;;6.53;3.93;;;1.20;99.90;;;;;;4163181;28;20337;-63
2023/01/21 02:27:47;;;;;;;5.07;3.00;;;1.10;99.90;;;;;;4162322;28;20282;-61
2023/01/21 02:29:54;;;;;;;6.07;3.10;;;1.10;99.90;;;;;;4163373;28;20654;-61
2023/01/21 02:32:24;;;;;;;5.47;3.50;;;1.10;99.90;;;;;;4162186;28;20267;-61
2023/01/21 02:35:22;;;;;;;5.23;2.57;;;1.20;99.90;;;;;;4163197;28;20337;-60
2023/01/21 02:37:32;;;;;;;6.57;2.80;;;1.20;99.90;;;;;;4096209;29;20344;-61
2023/01/21 02:39:58;;;;;;;2.90;2.13;;;1.20;99.90;;;;;;4135505;28;20364;-61
2023/01/21 02:42:27;;;;;;;5.37;2.10;;;1.20;99.90;;;;;;4162991;28;20271;-63
2023/01/21 02:44:46;;;;;;;2.60;1.80;;;1.20;99.90;;;;;;4161091;28;20682;-61
2023/01/21 02:47:01;;;;;;;2.40;1.70;;;1.20;99.90;;;;;;4162910;28;20279;-68
2023/01/21 02:49:14;;;;;;;2.30;1.60;;;1.20;99.90;;;;;;4160796;28;20278;-61
2023/01/21 02:51:18;;;;;;;4.70;1.93;;;1.20;99.90;;;;;;4162922;28;20313;-61
2023/01/21 02:53:22;;;;;;;4.43;1.87;;;1.20;99.90;;;;;;4161882;28;20263;-62
2023/01/21 02:55:31;;;;;;;3.07;2.10;;;1.20;99.90;;;;;;4162490;28;20333;-62
2023/01/21 02:57:47;;;;;;;2.47;1.10;;;1.20;99.90;;;;;;4161768;28;20267;-61
2023/01/21 02:59:51;;;;;;;1.90;1.17;;;1.20;99.90;;;;;;4161575;28;20302;-62
2023/01/21 03:02:05;;;;;;;2.07;1.20;;;1.20;99.90;;;;;;4161553;28;20733;-66
2023/01/21 03:04:21;;;;;;;1.87;0.90;;;1.20;99.90;;;;;;4161812;28;20701;-61
2023/01/21 03:06:29;;;;;;;1.33;0.93;;;1.20;99.90;;;;;;4160891;28;20335;-61
2023/01/21 03:08:37;;;;;;;1.20;0.70;;;1.10;99.90;;;;;;4162672;28;20332;-63
2023/01/21 03:10:44;;;;;;;1.23;1.10;;;1.20;99.90;;;;;;4143520;28;20307;-61
2023/01/21 03:13:05;;;;;;;1.60;0.80;;;1.20;99.90;;;;;;4161916;28;20271;-64
2023/01/21 03:18:13;;;;;;;2.97;0.97;;;1.10;99.90;;;;;;4162499;28;20818;-60
2023/01/21 03:20:29;;;;;;;2.50;1.20;;;1.20;99.90;;;;;;4159314;28;20372;-61
2023/01/21 03:22:34;;;;;;;2.27;1.30;;;1.20;99.90;;;;;;4156525;28;20278;-61
2023/01/21 03:24:39;;;;;;;1.23;0.93;;;1.30;99.90;;;;;;4161289;28;21693;-61
2023/01/21 03:26:45;;;;;;;1.93;1.07;;;1.30;99.90;;;;;;4162028;28;20743;-61
2023/01/21 03:28:52;;;;;;;1.27;0.80;;;1.30;99.90;;;;;;4160809;28;20279;-61
2023/01/21 03:30:59;;;;;;;2.83;1.30;;;1.20;99.90;;;;;;4162144;28;20254;-60
2023/01/21 03:33:01;;;;;;;1.30;1.10;;;1.30;99.90;;;;;;4160554;28;20275;-61
2023/01/21 03:35:05;;;;;;;1.67;1.10;;;1.30;99.90;;;;;;4162464;28;20274;-61
2023/01/21 03:37:24;;;;;;;1.50;1.10;;;1.30;99.90;;;;;;4160695;28;20267;-60
2023/01/21 03:39:50;;;;;;;2.67;1.80;;;1.30;99.90;;;;;;4161833;28;20364;-61
2023/01/21 03:41:51;;;;;;;2.30;1.30;;;1.30;99.90;;;;;;4160713;28;20328;-64
2023/01/21 03:43:53;;;;;;;1.30;1.20;;;1.30;99.90;;;;;;4161491;28;20694;-61
2023/01/21 03:46:16;;;;;;;3.53;1.70;;;1.40;99.90;;;;;;4159985;28;20324;-62
2023/01/21 03:48:37;;;;;;;2.80;1.80;;;1.40;99.90;;;;;;4161730;28;20316;-62
2023/01/21 03:50:44;;;;;;;1.50;1.40;;;1.30;99.90;;;;;;4160888;28;20302;-60
2023/01/21 03:52:45;;;;;;;1.63;1.30;;;1.30;99.90;;;;;;4161466;28;20262;-60
2023/01/21 03:54:48;;;;;;;1.87;1.30;;;1.30;99.90;;;;;;4161096;28;20321;-60
2023/01/21 03:56:49;;;;;;;2.67;1.83;;;1.30;99.90;;;;;;4161394;28;20329;-61
2023/01/21 03:58:50;;;;;;;3.20;1.57;;;1.30;99.90;;;;;;4160662;28;20283;-60
2023/01/21 04:00:51;;;;;;;2.40;1.63;;;1.30;99.90;;;;;;4161584;28;20266;-60
2023/01/21 04:02:52;;;;;;;3.90;1.60;;;1.20;99.90;;;;;;4159791;28;20734;-62
2023/01/21 04:04:53;;;;;;;3.10;1.80;;;1.20;99.90;;;;;;4160721;28;20316;-62
2023/01/21 04:06:54;;;;;;;1.77;1.57;;;1.20;99.90;;;;;;4160285;28;20321;-66
2023/01/21 04:08:56;;;;;;;2.40;1.90;;;1.30;99.90;;;;;;4161085;28;20817;-65
2023/01/21 04:10:57;;;;;;;2.63;1.70;;;1.20;99.90;;;;;;4160148;28;20329;-61
2023/01/21 04:12:58;;;;;;;1.77;1.20;;;1.20;99.90;;;;;;4161618;28;20266;-62
2023/01/21 04:14:59;;;;;;;3.17;1.30;;;1.20;99.90;;;;;;4160676;28;20666;-62
2023/01/21 04:17:00;;;;;;;1.70;1.60;;;1.20;99.90;;;;;;4161593;28;20727;-62
2023/01/21 04:19:01;;;;;;;1.63;1.23;;;1.20;99.90;;;;;;4161016;28;20275;-61
2023/01/21 04:21:02;;;;;;;1.60;1.50;;;1.20;99.90;;;;;;4160787;28;20279;-61
2023/01/21 04:23:04;;;;;;;2.13;1.33;;;1.20;99.90;;;;;;4161110;28;20270;-60
2023/01/21 04:25:05;;;;;;;2.53;1.73;;;1.20;99.90;;;;;;4161473;28;20255;-61
2023/01/21 04:27:06;;;;;;;2.10;1.47;;;1.20;99.90;;;;;;4161574;28;20647;-60
2023/01/21 04:29:07;;;;;;;2.13;1.60;;;1.20;99.90;;;;;;4160527;28;20746;-60
2023/01/21 04:31:09;;;;;;;1.77;1.50;;;1.20;99.90;;;;;;4160814;28;20266;-61
2023/01/21 04:33:10;;;;;;;2.27;1.57;;;1.20;99.90;;;;;;4159746;28;20329;-61
2023/01/21 04:35:11;;;;;;;1.90;1.40;;;1.20;99.90;;;;;;4161430;28;20312;-61
2023/01/21 04:37:12;;;;;;;2.33;1.70;;;1.20;99.90;;;;;;4160599;28;20270;-64
2023/01/21 04:39:13;;;;;;;2.13;1.50;;;1.20;99.90;;;;;;4162078;28;20324;-62
2023/01/21 04:41:14;;;;;;;1.93;1.60;;;1.30;99.90;;;;;;4160389;28;20682;-60
2023/01/21 04:43:15;;;;;;;2.37;1.70;;;1.20;99.90;;;;;;4161650;28;20755;-61
2023/01/21 04:45:17;;;;;;;2.20;1.63;;;1.30;99.90;;;;;;4160379;28;20686;-61
2023/01/21 04:47:18;;;;;;;2.70;1.80;;;1.30;99.90;;;;;;4161420;28;20321;-61
2023/01/21 04:49:19;;;;;;;2.23;1.80;;;1.30;99.90;;;;;;4160161;28;20278;-61
2023/01/21 04:51:20;;;;;;;3.17;2.07;;;1.30;99.90;;;;;;4160923;28;20271;-61
2023/01/21 04:53:21;;;;;;;2.10;1.90;;;1.30;99.90;;;;;;4160893;28;20784;-62
2023/01/21 04:55:23;;;;;;;2.20;1.80;;;1.30;99.90;;;;;;4160598;28;20267;-61
2023/01/21 04:57:24;;;;;;;3.23;2.10;;;1.30;99.90;;;;;;4160859;28;20283;-62
2023/01/21 04:59:26;;;;;;;2.40;1.90;;;1.30;99.90;;;;;;4159646;28;20287;-61
2023/01/21 05:01:27;;;;;;;2.60;2.20;;;1.30;99.90;;;;;;4160396;28;20353;-61
2023/01/21 05:03:28;;;;;;;2.50;1.80;;;1.30;99.90;;;;;;4158976;28;20278;-61
2023/01/21 05:05:29;;;;;;;2.10;1.90;;;1.30;99.90;;;;;;4160404;28;20279;-61
2023/01/21 05:07:30;;;;;;;3.00;2.20;;;1.20;99.90;;;;;;4159412;28;20344;-62
2023/01/21 05:09:31;;;;;;;3.00;2.27;;;1.20;99.90;;;;;;4164170;28;20267;-62
2023/01/21 05:11:32;;;;;;;3.83;2.23;;;1.20;99.90;;;;;;4163177;28;20279;-62
2023/01/21 05:13:33;;;;;;;1.93;1.50;;;1.20;99.90;;;;;;4163647;28;20271;-62
2023/01/21 05:15:35;;;;;;;1.97;1.67;;;1.20;99.90;;;;;;4162967;28;20612;-62
2023/01/21 05:17:36;;;;;;;2.43;2.07;;;1.10;99.90;;;;;;4164209;28;20765;-62
2023/01/21 05:19:37;;;;;;;2.73;2.23;;;1.10;99.90;;;;;;4163355;28;20332;-65
2023/01/21 05:21:38;;;;;;;2.57;2.10;;;1.10;99.90;;;;;;4163637;28;20674;-62
2023/01/21 05:23:39;;;;;;;2.47;2.13;;;1.10;99.90;;;;;;4163652;28;20305;-61
2023/01/21 05:25:40;;;;;;;3.50;2.27;;;1.10;99.90;;;;;;4163093;28;20673;-62
2023/01/21 05:27:41;;;;;;;2.83;2.47;;;1.10;99.90;;;;;;4163444;28;20283;-62
2023/01/21 05:29:42;;;;;;;2.73;2.10;;;1.10;99.90;;;;;;4163034;28;20271;-59
2023/01/21 05:31:44;;;;;;;4.67;2.60;;;1.10;99.90;;;;;;4164133;28;20271;-60
2023/01/21 05:33:46;;;;;;;4.67;2.83;;;1.10;99.90;;;;;;4163036;28;20308;-60
2023/01/21 05:35:47;;;;;;;4.13;2.60;;;1.10;99.90;;;;;;4164256;28;20313;-61
2023/01/21 05:37:48;;;;;;;3.17;2.67;;;1.10;99.90;;;;;;4163368;28;20320;-61
2023/01/21 05:39:49;;;;;;;2.50;2.27;;;1.10;99.90;;;;;;4163296;28;20786;-60
2023/01/21 05:41:50;;;;;;;4.70;3.40;;;1.10;99.90;;;;;;4162919;28;20267;-60
2023/01/21 05:43:51;;;;;;;4.53;3.13;;;1.10;99.90;;;;;;4145730;28;20291;-60
2023/01/21 05:45:53;;;;;;;7.30;4.17;;;1.00;99.90;;;;;;4162658;28;20313;-60
2023/01/21 05:47:54;;;;;;;5.07;3.73;;;1.00;99.90;;;;;;4163381;28;20336;-61
2023/01/21 05:49:55;;;;;;;5.90;3.83;;;1.00;99.90;;;;;;4162828;28;20259;-62
2023/01/21 05:51:56;;;;;;;5.50;3.67;;;1.10;99.90;;;;;;4163450;28;20262;-61
2023/01/21 05:53:57;;;;;;;6.47;3.70;;;1.00;99.90;;;;;;4162783;28;20961;-64
2023/01/21 05:55:58;;;;;;;6.27;3.50;;;1.10;99.90;;;;;;4163018;28;20271;-61
2023/01/21 05:58:00;;;;;;;4.43;2.97;;;1.10;99.90;;;;;;4163060;28;20336;-62
2023/01/21 06:00:01;;;;;;;5.73;3.60;;;1.00;99.90;;;;;;4162488;28;20709;-61
2023/01/21 06:02:02;;;;;;;4.67;3.47;;;1.10;99.90;;;;;;4162465;28;20681;-60
2023/01/21 06:04:03;;;;;;;3.60;2.90;;;1.10;99.90;;;;;;4161705;28;20275;-63
2023/01/21 06:06:05;;;;;;;5.70;3.50;;;1.00;99.90;;;;;;4163012;28;20658;-63
2023/01/21 06:08:07;;;;;;;5.97;3.73;;;1.10;99.90;;;;;;4161183;28;20270;-61
2023/01/21 06:10:08;;;;;;;8.60;4.70;;;1.10;99.90;;;;;;4163597;28;20259;-63
2023/01/21 06:12:09;;;;;;;6.93;3.93;;;1.10;99.90;;;;;;4162454;28;20309;-62
2023/01/21 06:14:11;;;;;;;5.17;3.80;;;1.10;99.90;;;;;;4163501;28;20251;-60
2023/01/21 06:16:12;;;;;;;6.33;4.20;;;1.10;99.90;;;;;;4162006;28;20340;-61
2023/01/21 06:18:13;;;;;;;8.43;4.73;;;1.10;99.90;;;;;;4163134;28;20267;-61
2023/01/21 06:20:14;;;;;;;6.30;4.60;;;1.10;99.90;;;;;;4160919;28;20291;-62
2023/01/21 06:22:16;;;;;;;7.80;4.77;;;1.20;99.90;;;;;;4162996;28;20270;-60
2023/01/21 06:24:17;;;;;;;6.77;4.23;;;1.20;99.90;;;;;;4162169;28;20258;-61
2023/01/21 06:26:18;;;;;;;6.67;4.53;;;1.20;99.90;;;;;;4162492;28;20305;-66
2023/01/21 06:28:19;;;;;;;7.13;4.83;;;1.20;99.90;;;;;;4162225;28;20600;-61
2023/01/21 06:30:21;;;;;;;7.50;4.73;;;1.20;99.90;;;;;;4162150;28;20286;-61
2023/01/21 06:32:22;;;;;;;8.13;4.77;;;1.20;99.90;;;;;;4163006;28;20358;-61
2023/01/21 06:34:23;;;;;;;8.67;4.63;;;1.20;99.90;;;;;;4161988;28;20254;-62
2023/01/21 06:36:24;;;;;;;6.37;4.60;;;1.20;99.90;;;;;;4162212;28;20255;-62
2023/01/21 06:38:25;;;;;;;6.53;4.60;;;1.20;99.90;;;;;;4162209;28;20267;-61
2023/01/21 06:40:27;;;;;;;8.97;4.73;;;1.20;99.90;;;;;;4162869;28;20295;-61
2023/01/21 06:42:28;;;;;;;7.50;4.77;;;1.10;99.90;;;;;;4161356;28;20333;-61
2023/01/21 06:44:29;;;;;;;10.10;5.80;;;1.10;99.90;;;;;;4161422;28;20693;-63
2023/01/21 06:46:30;;;;;;;7.90;5.17;;;1.10;99.90;;;;;;4160136;28;20704;-61
2023/01/21 06:48:31;;;;;;;7.60;4.57;;;1.20;99.90;;;;;;4160853;28;20332;-66
2023/01/21 06:50:32;;;;;;;8.40;5.07;;;1.20;99.90;;;;;;4160798;28;20617;-62
2023/01/21 06:52:33;;;;;;;8.77;5.20;;;1.10;99.90;;;;;;4162645;28;20325;-62
2023/01/21 06:54:35;;;;;;;9.80;6.07;;;1.10;99.90;;;;;;4161444;28;20329;-61
2023/01/21 06:56:36;;;;;;;8.20;5.27;;;1.10;99.90;;;;;;4160499;28;20308;-63
2023/01/21 06:58:37;;;;;;;9.17;5.70;;;1.10;99.90;;;;;;4161871;28;20259;-62
2023/01/21 07:00:38;;;;;;;9.60;5.10;;;1.10;99.90;;;;;;4161380;28;20697;-62
2023/01/21 07:02:39;;;;;;;8.53;5.77;;;1.10;99.90;;;;;;4160110;28;20266;-61
2023/01/21 07:04:40;;;;;;;10.17;5.57;;;1.10;99.90;;;;;;4159996;28;20317;-60
2023/01/21 07:06:41;;;;;;;8.30;4.90;;;1.10;99.90;;;;;;4162132;28;20746;-61
2023/01/21 07:08:43;;;;;;;6.47;4.07;;;1.20;99.90;;;;;;4161742;28;20352;-69
2023/01/21 07:10:44;;;;;;;7.77;5.07;;;1.20;99.90;;;;;;4162690;28;20810;-61
2023/01/21 07:12:45;;;;;;;7.97;5.17;;;1.20;99.90;;;;;;4160872;28;20750;-62
2023/01/21 07:14:46;;;;;;;6.83;4.77;;;1.20;99.90;;;;;;4162453;28;20271;-66
2023/01/21 07:16:47;;;;;;;7.77;4.97;;;1.20;99.90;;;;;;4161555;28;20778;-61
2023/01/21 07:18:48;;;;;;;8.13;5.60;;;1.30;99.90;;;;;;4162639;28;20309;-61
2023/01/21 07:20:49;;;;;;;9.03;5.30;;;1.30;99.90;;;;;;4161071;28;20299;-61
2023/01/21 07:22:51;;;;;;;9.87;5.47;;;1.30;99.90;;;;;;4161952;28;20313;-64
2023/01/21 07:24:52;;;;;;;9.13;5.43;;;1.30;99.90;;;;;;4161403;28;20301;-60
2023/01/21 07:26:53;;;;;;;12.60;6.90;;;1.30;99.90;;;;;;4161702;28;20329;-62
2023/01/21 07:28:54;;;;;;;11.43;6.00;;;1.30;99.90;;;;;;4161783;28;20243;-60
2023/01/21 07:30:58;;;;;;;10.33;6.53;;;1.30;99.90;;;;;;4160105;28;20270;-62
2023/01/21 07:33:07;;;;;;;11.13;6.87;;;1.30;99.90;;;;;;4158266;28;20337;-62
2023/01/21 07:35:08;;;;;;;10.70;6.53;;;1.30;99.90;;;;;;4160465;28;20304;-62
2023/01/21 07:37:09;;;;;;;9.60;6.30;;;1.30;99.90;;;;;;4161591;28;20283;-62
2023/01/21 07:39:10;;;;;;;10.40;6.20;;;1.40;99.90;;;;;;4160641;28;20299;-64
2023/01/21 07:41:12;;;;;;;11.97;6.40;;;1.40;99.90;;;;;;4161717;28;20298;-66
2023/01/21 07:43:13;;;;;;;11.73;6.57;;;1.40;99.90;;;;;;4160852;28;20298;-62
2023/01/21 07:45:14;;;;;;;12.47;6.57;;;1.50;99.90;;;;;;4162218;28;20317;-60
2023/01/21 07:47:15;;;;;;;10.97;6.67;;;1.50;99.90;;;;;;4160821;28;20848;-62
2023/01/21 07:49:17;;;;;;;8.40;5.67;;;1.60;99.90;;;;;;4162174;28;20275;-62
2023/01/21 07:51:19;;;;;;;7.07;4.67;;;1.60;99.90;;;;;;4160290;28;20357;-67
2023/01/21 07:53:20;;;;;;;8.30;4.70;;;1.60;99.90;;;;;;4161406;28;20294;-62
2023/01/21 07:55:21;;;;;;;7.60;5.03;;;1.50;99.90;;;;;;4160733;28;20266;-61
2023/01/21 07:57:22;;;;;;;6.07;4.53;;;1.50;99.90;;;;;;4160282;28;22025;-61
2023/01/21 07:59:23;;;;;;;8.80;5.47;;;1.60;99.90;;;;;;4160515;28;20318;-62
2023/01/21 08:01:29;;;;;;;7.67;5.43;;;1.70;99.90;;;;;;4160376;28;20303;-62
2023/01/21 08:03:30;;;;;;;10.33;6.40;;;1.60;99.90;;;;;;4158814;28;20290;-62
2023/01/21 08:05:32;;;;;;;8.23;5.70;;;1.70;99.90;;;;;;4159161;28;20271;-62
2023/01/21 08:07:33;;;;;;;8.07;5.80;;;1.70;99.90;;;;;;4160136;28;20275;-63
2023/01/21 08:09:37;;;;;;;7.80;5.43;;;1.70;99.90;;;;;;4160307;28;20344;-63
2023/01/21 08:11:38;;;;;;;7.50;5.23;;;1.70;99.90;;;;;;4142538;28;20889;-63
2023/01/21 08:13:40;;;;;;;8.60;5.63;;;1.70;99.90;;;;;;4160157;28;20298;-62
2023/01/21 08:15:41;;;;;;;10.43;5.40;;;1.70;99.90;;;;;;4161871;28;20328;-67
2023/01/21 08:17:42;;;;;;;9.17;5.53;;;1.70;99.90;;;;;;4160262;28;20267;-63
2023/01/21 08:19:44;;;;;;;13.07;6.90;;;1.70;99.90;;;;;;4161581;28;20825;-62
2023/01/21 08:21:45;;;;;;;12.57;7.23;;;1.80;99.90;;;;;;4160431;28;20344;-64
2023/01/21 08:23:46;;;;;;;12.53;6.63;;;1.80;99.90;;;;;;4161167;28;20353;-66
2023/01/21 08:25:47;;;;;;;9.97;4.97;;;1.90;99.90;;;;;;4159449;28;20282;-66
2023/01/21 08:27:48;;;;;;;5.03;3.60;;;1.90;99.90;;;;;;4176262;28;20262;-68
2023/01/21 08:29:49;;;;;;;9.63;4.90;;;1.90;99.90;;;;;;4159880;28;20286;-64
2023/01/21 08:31:51;;;;;;;9.00;4.97;;;2.00;99.90;;;;;;4160565;28;20349;-65
2023/01/21 08:33:53;;;;;;;6.20;4.33;;;2.00;99.90;;;;;;4159710;28;20352;-66
2023/01/21 08:35:59;;;;;;;4.57;3.13;;;2.00;99.90;;;;;;4160337;28;20741;-64
2023/01/21 08:38:01;;;;;;;9.73;5.53;;;2.00;99.90;;;;;;4161067;28;20278;-61
2023/01/21 08:40:02;;;;;;;5.77;4.00;;;2.10;99.90;;;;;;4159984;28;21081;-63
2023/01/21 08:42:04;;;;;;;5.87;4.27;;;2.10;99.90;;;;;;4159596;28;20323;-69
2023/01/21 08:44:06;;;;;;;6.73;4.63;;;2.10;99.90;;;;;;4143317;28;20815;-63
2023/01/21 08:46:07;;;;;;;7.30;4.03;;;2.10;99.90;;;;;;4164670;28;20825;-61
2023/01/21 08:48:08;;;;;;;9.40;5.73;;;2.10;99.90;;;;;;4162717;28;23234;-61
2023/01/21 08:50:10;;;;;;;5.30;3.90;;;2.10;99.90;;;;;;4164740;28;20344;-68
2023/01/21 08:52:11;;;;;;;7.37;4.80;;;2.10;99.90;;;;;;4162719;28;20642;-66
2023/01/21 08:54:12;;;;;;;9.87;4.97;;;2.10;99.90;;;;;;4157864;28;21058;-62
2023/01/21 08:56:13;;;;;;;21.87;10.87;;;2.10;99.90;;;;;;4146242;28;20345;-62
2023/01/21 08:58:14;;;;;;;21.33;10.13;;;2.10;99.90;;;;;;4148081;28;20605;-63
2023/01/21 09:00:16;;;;;;;7.00;4.80;;;2.20;99.90;;;;;;4157527;28;20336;-61
2023/01/21 09:02:17;;;;;;;3.93;2.90;;;2.20;99.90;;;;;;4163241;28;20270;-63
2023/01/21 09:04:20;;;;;;;5.03;4.17;;;2.20;99.90;;;;;;4163563;28;20274;-63
2023/01/21 09:06:22;;;;;;;5.20;3.50;;;2.20;99.90;;;;;;4159307;28;20259;-62
2023/01/21 09:08:23;;;;;;;5.80;3.80;;;2.20;99.90;;;;;;4160474;28;20290;-63
2023/01/21 09:12:44;;;;;;;6.77;4.00;;;2.20;99.90;;;;;;4161033;28;20266;-63
2023/01/21 09:14:45;;;;;;;9.20;5.73;;;2.30;99.90;;;;;;4163186;28;20340;-65
2023/01/21 09:16:49;;;;;;;7.27;4.70;;;2.30;99.90;;;;;;4163851;28;21096;-61
2023/01/21 09:18:50;;;;;;;7.63;4.97;;;2.30;99.90;;;;;;4162739;28;20421;-64
2023/01/21 09:20:52;;;;;;;6.93;4.27;;;2.30;99.90;;;;;;4163875;28;20290;-63
2023/01/21 09:22:53;;;;;;;8.03;4.47;;;2.30;99.90;;;;;;4162975;28;20293;-64
2023/01/21 09:24:55;;;;;;;5.57;3.63;;;2.40;99.90;;;;;;4163361;28;20317;-66
2023/01/21 09:26:56;;;;;;;7.67;3.70;;;2.40;99.90;;;;;;4161851;28;20348;-62
2023/01/21 09:28:59;;;;;;;8.37;4.87;;;2.40;99.90;;;;;;4158748;28;20353;-63
2023/01/21 09:31:06;;;;;;;5.23;3.87;;;2.40;99.90;;;;;;4162399;28;20337;-59
2023/01/21 09:33:07;;;;;;;6.97;4.27;;;2.50;99.90;;;;;;4149872;28;20318;-63
2023/01/21 09:35:08;;;;;;;5.67;4.00;;;2.60;99.90;;;;;;4146006;28;20752;-61
2023/01/21 09:37:09;;;;;;;5.57;4.00;;;2.60;99.90;;;;;;4150828;28;20262;-64
2023/01/21 09:39:10;;;;;;;6.47;4.57;;;2.70;99.90;;;;;;4162368;28;20804;-64
2023/01/21 09:41:20;;;;;;;5.50;4.10;;;2.70;99.90;;;;;;4162420;28;20302;-63
2023/01/21 09:43:34;;;;;;;5.33;3.77;;;2.70;99.90;;;;;;4162407;28;20283;-60
2023/01/21 09:45:35;;;;;;;6.10;4.23;;;2.60;99.90;;;;;;4163124;28;20270;-63
2023/01/21 09:47:40;;;;;;;6.07;4.47;;;2.60;99.90;;;;;;4162093;28;20333;-67
2023/01/21 09:49:46;;;;;;;6.03;4.03;;;2.60;99.90;;;;;;4162204;28;20337;-60
2023/01/21 09:51:52;;;;;;;6.73;4.77;;;2.60;99.90;;;;;;4162730;28;20289;-67
2023/01/21 09:53:56;;;;;;;5.83;4.30;;;2.50;99.90;;;;;;4161019;28;20271;-64
2023/01/21 09:56:01;;;;;;;6.70;4.57;;;2.60;99.90;;;;;;4162254;28;20765;-63
2023/01/21 09:58:42;;;;;;;8.20;4.70;;;2.60;99.90;;;;;;4161614;28;20286;-61
2023/01/21 10:00:53;;;;;;;6.83;4.90;;;2.60;99.90;;;;;;4095937;29;20305;-68
2023/01/21 10:03:21;;;;;;;7.50;5.43;;;2.60;99.90;;;;;;4096449;29;20265;-68
2023/01/21 10:05:23;;;;;;;7.47;5.47;;;2.60;99.90;;;;;;4112776;28;20041;-63
2023/01/21 10:07:31;;;;;;;6.47;4.77;;;2.60;99.90;;;;;;4163233;28;20278;-67
2023/01/21 10:09:56;;;;;;;7.63;5.50;;;2.70;99.90;;;;;;4161840;28;20681;-63
2023/01/21 10:12:12;;;;;;;7.77;5.20;;;2.70;99.90;;;;;;4163119;28;20320;-63
2023/01/21 10:14:39;;;;;;;10.73;5.73;;;2.70;99.90;;;;;;4161420;28;20781;-61
2023/01/21 10:16:58;;;;;;;9.40;5.50;;;2.80;99.90;;;;;;4162966;28;20270;-61
2023/01/21 10:19:02;;;;;;;10.33;6.63;;;2.80;99.90;;;;;;4178601;28;20262;-61
2023/01/21 10:21:21;;;;;;;7.83;5.53;;;2.90;99.90;;;;;;4165980;28;20299;-62
2023/01/21 10:23:38;;;;;;;9.43;5.30;;;2.90;99.90;;;;;;4160406;28;20307;-63
2023/01/21 10:25:40;;;;;;;7.40;4.73;;;2.90;99.90;;;;;;4162754;28;20608;-62
2023/01/21 10:27:42;;;;;;;8.83;6.17;;;2.90;99.90;;;;;;4162004;28;20278;-64
2023/01/21 10:29:49;;;;;;;11.67;7.53;;;3.00;99.90;;;;;;4162563;28;20327;-63
2023/01/21 10:31:58;;;;;;;10.93;7.50;;;3.10;99.90;;;;;;4161826;28;20743;-63
2023/01/21 10:34:00;;;;;;;10.63;7.70;;;3.10;99.90;;;;;;4162648;28;20263;-63
2023/01/21 10:36:13;;;;;;;10.07;6.90;;;3.10;99.90;;;;;;4162285;28;20617;-65
2023/01/21 10:38:26;;;;;;;11.53;8.37;;;3.10;99.90;;;;;;4162626;28;20332;-61
2023/01/21 10:40:46;;;;;;;12.77;8.80;;;3.00;99.90;;;;;;4145296;28;20318;-61
2023/01/21 10:43:14;;;;;;;5.65;4.35;;;3.10;99.90;;;;;;4146287;28;20381;-60
2023/01/21 10:45:44;;;;;;;8.60;6.10;;;3.10;99.90;;;;;;4145138;28;20116;-62
2023/01/21 10:47:48;;;;;;;8.27;5.90;;;3.10;99.90;;;;;;4145857;28;20288;-62
2023/01/21 10:50:10;;;;;;;9.70;6.40;;;3.10;99.90;;;;;;4145171;28;20814;-62
2023/01/21 10:52:17;;;;;;;8.23;5.50;;;3.10;99.90;;;;;;4145595;28;20264;-62
2023/01/21 10:54:30;;;;;;;8.63;4.60;;;3.10;99.90;;;;;;4145397;28;20743;-64
2023/01/21 10:56:51;;;;;;;10.97;5.93;;;3.10;99.90;;;;;;4145693;28;20275;-61
2023/01/21 10:59:03;;;;;;;7.10;5.47;;;3.20;99.90;;;;;;4144758;28;20326;-65
2023/01/21 11:01:13;;;;;;;7.03;5.10;;;3.20;99.90;;;;;;4144793;28;20361;-62